CheckWX is a tool to help pilots better visualize weather data.  It is not intended as a substitute for an official pre-flight weather briefing.

23:13:37 UTC

KPWM METAR
Portland International Jetport Airport
Portland, Maine, USA
Current

23 mins ago

KPWM 092251Z 18005KT 10SM SCT250 25/20 A2999 RMK AO2 SLP155 T02500200
Observed
Jul-9 @ 22:51 UTC
Wind
  • 180° at 5 KTS
Visibility
10 SM
Flight Rules
VFR
Cloud Levels
  • Scattered at 25,000' AGL
Temperature
25°C / 77°F
Dewpoint
20°C / 68°F
Humidity
74%
Altimeter
29.99" Hg
Pressure
1015.62 hPa
Previous

1 hour ago

KPWM 092151Z 15004KT 10SM SCT250 26/20 A2998 RMK AO2 SLP152 T02560200
Observed
Jul-9 @ 21:51 UTC
Wind
  • 150° at 4 KTS
Visibility
10 SM
Flight Rules
VFR
Cloud Levels
  • Scattered at 25,000' AGL
Temperature
26°C / 79°F
Dewpoint
20°C / 68°F
Humidity
70%
Altimeter
29.98" Hg
Pressure
1015.22 hPa
Previous

2 hours ago

KPWM 092051Z 16008KT 10SM SCT250 27/21 A2998 RMK AO2 SLP152 T02670206 56007
Observed
Jul-9 @ 20:51 UTC
Wind
  • 160° at 8 KTS
Visibility
10 SM
Flight Rules
VFR
Cloud Levels
  • Scattered at 25,000' AGL
Temperature
27°C / 81°F
Dewpoint
21°C / 70°F
Humidity
70%
Altimeter
29.98" Hg
Pressure
1015.22 hPa